Time;durP1;ratioP1;P1;durP2;ratioP2;P2;SDS_P1;SDS_P2;PMS_P1;PMS_P2;Temp;Humidity;BMP_temperature;BMP_pressure;BME280_temperature;BME280_humidity;BME280_pressure;Samples;Min_cycle;Max_cycle;Signal;HPM_P1;HPM_P2
2022/07/14 00:01:15;;;;;;;;;14.50;13.00;;;;;29.00;32.08;101517.16;5099241;27;45400;-61
2022/07/14 00:03:41;;;;;;;;;16.50;16.50;;;;;29.01;32.19;101516.06;5101115;27;45626;-61
2022/07/14 00:06:06;;;;;;;;;17.40;16.80;;;;;28.94;32.28;101500.84;5100931;27;45439;-63
2022/07/14 00:08:32;;;;;;;;;24.50;19.00;;;;;29.04;31.93;101512.00;5101005;27;45864;-63
2022/07/14 00:10:57;;;;;;;;;20.00;18.25;;;;;29.05;31.84;101508.19;5101217;27;45409;-61
2022/07/14 00:13:23;;;;;;;;;25.00;21.25;;;;;29.01;31.77;101517.97;5100408;27;46939;-60
2022/07/14 00:15:48;;;;;;;;;23.75;20.00;;;;;28.98;31.74;101515.72;5101104;27;45433;-61
2022/07/14 00:18:14;;;;;;;;;26.00;23.50;;;;;28.83;32.11;101491.66;5100994;27;45264;-62
2022/07/14 00:20:39;;;;;;;;;28.50;24.25;;;;;28.92;31.98;101511.25;5101091;27;45400;-63
2022/07/14 00:23:05;;;;;;;;;28.50;26.50;;;;;28.85;31.97;101495.78;5100409;27;45320;-62
2022/07/14 00:25:30;;;;;;;;;32.25;30.25;;;;;28.77;32.02;101487.16;5100712;27;45237;-62
2022/07/14 00:27:56;;;;;;;;;30.75;24.25;;;;;28.83;32.45;101506.19;5100543;27;45376;-62
2022/07/14 00:30:22;;;;;;;;;35.00;27.75;;;;;28.70;32.21;101476.41;5100582;27;45181;-64
2022/07/14 00:32:47;;;;;;;;;33.00;28.25;;;;;28.80;32.23;101481.19;5100059;27;46115;-61
2022/07/14 00:35:13;;;;;;;;;31.75;28.00;;;;;28.80;32.31;101475.72;5100594;27;45322;-61
2022/07/14 00:37:39;;;;;;;;;31.75;30.50;;;;;28.77;32.66;101460.63;5100159;27;45429;-61
2022/07/14 00:40:06;;;;;;;;;32.75;28.00;;;;;28.79;32.85;101461.22;5100446;27;45387;-62
2022/07/14 00:42:45;;;;;;;;;28.75;28.25;;;;;28.78;32.38;101465.03;5099937;27;46215;-61
2022/07/14 00:45:19;;;;;;;;;34.00;27.25;;;;;28.74;32.48;101460.31;5100106;27;45360;-61
2022/07/14 00:47:46;;;;;;;;;30.75;29.25;;;;;28.75;32.87;101461.97;5100342;27;45317;-62
2022/07/14 00:50:13;;;;;;;;;27.50;25.75;;;;;28.73;32.80;101464.94;5099268;27;45532;-61
2022/07/14 00:52:40;;;;;;;;;31.25;25.00;;;;;28.76;32.49;101466.34;5099783;27;46302;-60
2022/07/14 00:55:07;;;;;;;;;22.00;16.50;;;;;28.79;32.57;101471.34;5099868;27;45392;-61
2022/07/14 00:57:33;;;;;;;;;25.50;23.75;;;;;28.78;32.64;101464.19;5099983;27;45481;-61
2022/07/14 00:59:58;;;;;;;;;29.75;26.25;;;;;28.81;32.56;101472.72;5100013;27;45652;-61
2022/07/14 01:02:24;;;;;;;;;25.25;20.50;;;;;28.71;32.77;101445.19;5099966;27;45414;-60
2022/07/14 01:04:49;;;;;;;;;27.50;24.00;;;;;28.70;32.58;101449.03;5099882;27;45387;-60
2022/07/14 01:07:16;;;;;;;;;28.75;24.00;;;;;28.79;32.82;101474.91;5099790;27;45343;-60
2022/07/14 01:09:42;;;;;;;;;33.00;23.50;;;;;28.81;32.77;101486.41;5099981;27;45363;-60
2022/07/14 01:12:08;;;;;;;;;26.75;24.25;;;;;28.80;33.39;101487.50;5098854;27;45414;-62
2022/07/14 01:14:35;;;;;;;;;27.60;24.40;;;;;28.80;32.99;101486.69;5099538;27;45400;-60
2022/07/14 01:17:01;;;;;;;;;33.00;27.50;;;;;28.78;33.39;101481.47;5099820;27;45255;-60
2022/07/14 01:19:26;;;;;;;;;36.00;27.00;;;;;28.73;33.92;101475.06;5099647;27;45513;-60
2022/07/14 01:21:55;;;;;;;;;27.75;26.25;;;;;28.71;33.73;101482.72;5099418;27;46311;-62
2022/07/14 01:24:22;;;;;;;;;29.00;25.25;;;;;28.67;33.59;101485.09;5099463;27;45343;-60
2022/07/14 01:26:48;;;;;;;;;31.00;27.00;;;;;28.66;33.64;101486.19;5099458;27;45433;-62
2022/07/14 01:29:13;;;;;;;;;23.75;23.00;;;;;28.64;33.61;101490.25;5099407;27;45244;-61
2022/07/14 01:31:39;;;;;;;;;25.75;22.00;;;;;28.64;34.20;101496.56;5098918;27;45399;-60
2022/07/14 01:34:04;;;;;;;;;22.00;20.75;;;;;28.53;34.50;101483.78;5099288;27;45338;-61
2022/07/14 01:36:30;;;;;;;;;23.25;21.25;;;;;28.59;34.50;101507.41;5099336;27;45164;-61
2022/07/14 01:38:55;;;;;;;;;23.00;19.50;;;;;28.46;34.50;101494.06;5099480;27;45227;-62
2022/07/14 01:41:21;;;;;;;;;26.50;18.25;;;;;28.50;34.37;101517.94;5099171;27;46047;-59
2022/07/14 01:43:47;;;;;;;;;18.60;17.00;;;;;28.46;34.85;101505.84;5098914;27;45256;-61
2022/07/14 01:46:13;;;;;;;;;21.25;15.25;;;;;28.29;35.00;101475.69;5099070;27;45388;-61
2022/07/14 01:48:38;;;;;;;;;18.50;15.50;;;;;28.37;35.03;101496.38;5099266;27;45398;-61
2022/07/14 01:51:04;;;;;;;;;21.75;16.25;;;;;28.36;35.06;101494.72;5099128;27;45417;-60
2022/07/14 01:53:29;;;;;;;;;20.25;18.00;;;;;28.35;35.02;101498.50;5099031;27;45309;-60
2022/07/14 01:55:55;;;;;;;;;16.00;16.00;;;;;28.30;35.35;101495.66;5099146;27;45315;-60
2022/07/14 01:58:20;;;;;;;;;17.25;14.75;;;;;28.27;35.22;101501.63;5099213;27;45500;-60
2022/07/14 02:01:39;;;;;;;;;13.50;13.50;;;;;28.26;35.39;101492.59;5098823;27;46022;-60
2022/07/14 02:03:31;;;;;;;;;12.80;11.80;;;;;28.23;35.26;101490.38;5098785;27;45424;-61
2022/07/14 02:05:56;;;;;;;;;13.00;11.75;;;;;28.18;35.14;101487.50;5097675;27;45250;-61
2022/07/14 02:08:21;;;;;;;;;9.50;8.25;;;;;28.15;35.00;101484.44;5099168;27;45309;-61
2022/07/14 02:13:30;;;;;;;;;11.40;7.80;;;;;28.05;34.84;101471.41;5098512;27;45445;-61
2022/07/14 02:15:56;;;;;;;;;10.00;5.50;;;;;28.03;34.85;101482.59;5099030;27;45942;-60
2022/07/14 02:18:21;;;;;;;;;11.25;9.00;;;;;27.96;34.99;101484.66;5098791;27;45499;-62
2022/07/14 02:20:47;;;;;;;;;11.00;9.50;;;;;27.91;35.01;101481.81;5098498;27;45887;-61
2022/07/14 02:23:12;;;;;;;;;12.25;11.00;;;;;27.89;35.22;101481.22;5098470;27;45374;-60
2022/07/14 02:25:38;;;;;;;;;11.50;11.50;;;;;27.83;35.53;101474.84;5097731;27;45347;-61
2022/07/14 02:28:03;;;;;;;;;14.00;12.25;;;;;27.79;35.96;101472.84;5098707;27;45449;-61
2022/07/14 02:30:29;;;;;;;;;15.00;11.50;;;;;27.71;35.73;101462.25;5096415;27;48077;-62
2022/07/14 02:32:55;;;;;;;;;14.40;11.80;;;;;27.71;35.94;101465.81;5098150;27;45348;-60
2022/07/14 02:35:20;;;;;;;;;16.25;15.50;;;;;27.69;35.81;101467.16;5098472;27;45738;-60
2022/07/14 02:37:46;;;;;;;;;16.50;14.00;;;;;27.59;36.29;101465.84;5098455;27;45347;-63
2022/07/14 02:40:11;;;;;;;;;16.50;14.00;;;;;27.58;36.18;101471.56;5098181;27;46091;-62
2022/07/14 02:42:37;;;;;;;;;13.00;12.25;;;;;27.58;36.53;101464.19;5098223;27;45488;-60
2022/07/14 02:45:03;;;;;;;;;13.75;10.00;;;;;27.55;36.49;101470.13;5098426;27;45314;-60
2022/07/14 02:47:28;;;;;;;;;14.25;13.50;;;;;27.50;36.62;101461.84;5098267;27;45423;-60
2022/07/14 02:49:53;;;;;;;;;12.00;12.00;;;;;27.45;37.01;101467.22;5097858;27;46268;-60
2022/07/14 02:52:19;;;;;;;;;16.75;14.25;;;;;27.41;36.70;101465.19;5098089;27;45434;-61
2022/07/14 02:54:44;;;;;;;;;18.50;15.25;;;;;27.36;36.78;101457.72;5098228;27;45295;-61
2022/07/14 02:57:09;;;;;;;;;14.75;13.00;;;;;27.32;37.04;101462.84;5098152;27;45488;-60
2022/07/14 02:59:35;;;;;;;;;12.00;11.25;;;;;27.26;36.87;101468.41;5097455;27;45450;-61
2022/07/14 03:02:00;;;;;;;;;13.50;10.25;;;;;27.19;37.06;101456.81;5098048;27;45301;-61
2022/07/14 03:04:25;;;;;;;;;19.25;18.25;;;;;27.21;37.47;101463.69;5098186;27;45340;-60
2022/07/14 03:06:52;;;;;;;;;15.00;15.00;;;;;27.07;37.56;101443.13;5098200;27;45537;-61
2022/07/14 03:09:17;;;;;;;;;18.75;14.75;;;;;27.15;38.09;101455.63;5098007;27;45465;-60
2022/07/14 03:11:43;;;;;;;;;22.00;17.00;;;;;27.10;37.23;101454.44;5097791;27;45234;-61
2022/07/14 03:14:08;;;;;;;;;14.25;12.50;;;;;26.99;38.17;101441.59;5097821;27;45281;-60
2022/07/14 03:16:33;;;;;;;;;16.75;16.50;;;;;26.93;37.95;101441.75;5098146;27;45224;-61
2022/07/14 03:18:59;;;;;;;;;12.25;12.25;;;;;26.95;37.93;101445.06;5097202;27;46235;-60
2022/07/14 03:21:24;;;;;;;;;13.00;12.75;;;;;26.92;38.43;101454.53;5097767;27;45373;-61
2022/07/14 03:23:49;;;;;;;;;11.00;10.75;;;;;26.90;38.65;101455.88;5097768;27;45381;-61
2022/07/14 03:26:15;;;;;;;;;9.50;9.00;;;;;26.86;38.96;101459.06;5098134;27;45339;-61
2022/07/14 03:28:41;;;;;;;;;9.75;9.00;;;;;26.79;38.35;101446.59;5097796;27;46176;-61
2022/07/14 03:31:06;;;;;;;;;13.80;11.40;;;;;26.88;39.07;101453.34;5097443;27;45336;-61
2022/07/14 03:33:32;;;;;;;;;16.25;11.00;;;;;26.89;38.89;101456.94;5097639;27;45453;-61
2022/07/14 03:35:57;;;;;;;;;15.75;15.00;;;;;26.87;38.82;101455.25;5100734;27;45509;-61
2022/07/14 03:38:23;;;;;;;;;19.00;15.75;;;;;26.85;38.60;101459.31;5104143;27;46025;-60
2022/07/14 03:40:48;;;;;;;;;19.50;16.50;;;;;26.87;38.78;101457.16;5104457;27;45398;-62
2022/07/14 03:43:13;;;;;;;;;21.25;16.00;;;;;26.81;38.86;101452.66;5104592;27;45329;-61
2022/07/14 03:45:39;;;;;;;;;25.25;20.25;;;;;26.77;39.03;101448.75;5103267;27;45469;-62
2022/07/14 03:48:07;;;;;;;;;27.25;23.75;;;;;26.76;39.75;101453.38;5104268;27;45321;-63
2022/07/14 03:50:33;;;;;;;;;28.20;20.00;;;;;26.72;39.85;101451.34;5104046;27;45225;-60
2022/07/14 03:52:58;;;;;;;;;30.00;23.00;;;;;26.69;39.85;101446.38;5104337;27;45413;-61
2022/07/14 03:55:23;;;;;;;;;24.25;20.25;;;;;26.68;40.02;101452.91;5104363;27;45366;-60
2022/07/14 03:57:49;;;;;;;;;28.50;20.25;;;;;26.68;39.68;101444.72;5104013;27;45983;-60
2022/07/14 04:00:15;;;;;;;;;23.50;20.75;;;;;26.69;39.68;101449.09;5103924;27;45566;-62
2022/07/14 04:02:41;;;;;;;;;22.00;19.00;;;;;26.66;40.44;101450.38;5104202;27;45319;-61
2022/07/14 04:05:07;;;;;;;;;22.25;17.00;;;;;26.65;40.14;101456.91;5104376;27;45257;-61
2022/07/14 04:07:32;;;;;;;;;18.75;16.50;;;;;26.62;40.52;101452.75;5103832;27;45675;-62
2022/07/14 04:09:57;;;;;;;;;16.00;15.75;;;;;26.58;40.29;101453.47;5104035;27;45344;-61
2022/07/14 04:12:23;;;;;;;;;23.75;17.75;;;;;26.49;41.00;101444.78;5103963;27;45294;-63
2022/07/14 04:14:48;;;;;;;;;16.25;12.75;;;;;26.53;40.90;101465.09;5104005;27;45305;-63
2022/07/14 04:17:13;;;;;;;;;19.00;17.00;;;;;26.48;40.65;101453.22;5103831;27;45390;-60
2022/07/14 04:19:39;;;;;;;;;15.50;14.75;;;;;26.43;40.47;101451.16;5103818;27;45326;-61
2022/07/14 04:22:05;;;;;;;;;17.00;13.75;;;;;26.42;40.71;101457.69;5103940;27;45344;-62
2022/07/14 04:24:30;;;;;;;;;18.50;13.25;;;;;26.41;40.41;101458.75;5103957;27;45295;-62
2022/07/14 04:26:56;;;;;;;;;18.75;12.75;;;;;26.37;41.26;101457.56;5103396;27;46016;-61
2022/07/14 04:29:23;;;;;;;;;16.40;13.00;;;;;26.32;41.30;101458.25;5103638;27;45505;-62
2022/07/14 04:31:48;;;;;;;;;12.60;11.40;;;;;26.32;41.45;101460.97;5103432;27;45410;-62
2022/07/14 04:34:14;;;;;;;;;9.25;9.25;;;;;26.33;40.97;101467.25;5103850;27;45523;-62
2022/07/14 04:36:39;;;;;;;;;8.75;8.00;;;;;26.18;41.34;101442.34;5103536;27;45985;-61
2022/07/14 04:39:06;;;;;;;;;13.75;10.75;;;;;26.26;41.77;101461.94;5103485;27;45238;-63
2022/07/14 04:41:35;;;;;;;;;11.20;10.20;;;;;26.23;41.33;101459.66;5103663;27;45404;-63
2022/07/14 04:44:00;;;;;;;;;11.25;10.00;;;;;26.20;41.64;101465.56;5103803;27;45338;-60
2022/07/14 04:46:25;;;;;;;;;14.00;9.00;;;;;26.20;41.68;101462.84;5103295;27;47044;-60
2022/07/14 04:54:19;;;;;;;;;11.50;8.00;;;;;26.28;42.08;101476.16;5100300;27;45502;-62
2022/07/14 04:56:44;;;;;;;;;7.75;7.25;;;;;26.30;42.30;101471.31;5100096;27;45875;-61
2022/07/14 04:59:09;;;;;;;;;10.00;8.00;;;;;26.33;41.93;101473.53;5099808;27;45351;-61
2022/07/14 05:01:34;;;;;;;;;11.25;9.75;;;;;26.33;41.83;101470.00;5099728;27;45398;-62
2022/07/14 05:04:00;;;;;;;;;10.25;8.50;;;;;26.33;41.88;101476.28;5100149;27;45250;-62
2022/07/14 05:06:25;;;;;;;;;7.00;7.00;;;;;26.32;41.73;101471.88;5098415;27;48055;-62
2022/07/14 05:08:50;;;;;;;;;11.00;8.75;;;;;26.32;42.62;101463.72;5099916;27;45202;-61
2022/07/14 05:11:17;;;;;;;;;11.50;9.25;;;;;26.33;42.72;101475.44;5099817;27;45325;-60
2022/07/14 05:13:42;;;;;;;;;8.50;7.75;;;;;26.22;42.31;101449.81;5100074;27;45461;-60
2022/07/14 05:16:08;;;;;;;;;11.75;6.75;;;;;26.37;42.32;101471.19;5099648;27;45749;-62
2022/07/14 05:18:33;;;;;;;;;10.75;10.75;;;;;26.33;42.64;101470.00;5099591;27;45349;-62
2022/07/14 05:20:59;;;;;;;;;11.00;11.00;;;;;26.37;42.02;101476.66;5099686;27;45271;-62
2022/07/14 05:23:24;;;;;;;;;13.00;10.00;;;;;26.38;42.21;101472.88;5099775;27;45455;-61
2022/07/14 05:25:49;;;;;;;;;13.75;12.50;;;;;26.35;42.68;101473.34;5098268;27;47798;-62
2022/07/14 05:28:15;;;;;;;;;13.00;8.00;;;;;26.34;42.31;101474.41;5099311;27;45382;-62
2022/07/14 05:30:40;;;;;;;;;15.00;13.75;;;;;26.33;42.51;101475.44;5099267;27;45364;-60
2022/07/14 05:33:05;;;;;;;;;10.00;9.00;;;;;26.34;42.79;101469.78;5099509;27;45200;-61
2022/07/14 05:35:31;;;;;;;;;13.25;12.50;;;;;26.40;43.15;101476.19;5099236;27;46184;-60
2022/07/14 05:37:56;;;;;;;;;19.75;12.75;;;;;26.46;42.91;101471.72;5097811;27;45236;-61
2022/07/14 05:40:21;;;;;;;;;10.50;9.75;;;;;26.50;42.07;101471.00;5099494;27;45430;-61
2022/07/14 05:42:47;;;;;;;;;12.50;10.00;;;;;26.46;42.73;101463.53;5099623;27;45351;-61
2022/07/14 05:45:12;;;;;;;;;11.75;11.75;;;;;26.57;42.38;101468.19;5099026;27;45465;-62
2022/07/14 05:47:38;;;;;;;;;12.50;12.00;;;;;26.59;42.50;101475.06;5099153;27;45413;-62
2022/07/14 05:50:04;;;;;;;;;11.25;10.75;;;;;26.61;42.33;101477.56;5099287;27;45399;-62
2022/07/14 05:52:30;;;;;;;;;8.00;8.00;;;;;26.61;42.22;101481.13;5099407;27;45656;-61
2022/07/14 05:54:59;;;;;;;;;12.20;9.60;;;;;26.61;42.07;101477.56;5098452;27;46429;-60
2022/07/14 05:57:24;;;;;;;;;10.40;9.00;;;;;26.49;41.86;101461.16;5099413;27;45170;-60
2022/07/14 05:59:49;;;;;;;;;12.25;8.25;;;;;26.58;42.25;101481.56;5098953;27;45270;-60
2022/07/14 06:02:15;;;;;;;;;15.00;9.50;;;;;26.58;42.64;101484.31;5099128;27;45450;-60
2022/07/14 06:04:40;;;;;;;;;9.25;8.75;;;;;26.65;42.54;101486.09;5099255;27;45247;-61
2022/07/14 06:07:07;;;;;;;;;9.00;8.00;;;;;26.71;42.58;101479.69;5097668;27;45305;-61
2022/07/14 06:09:35;;;;;;;;;11.80;9.00;;;;;26.81;42.17;101478.06;5099057;27;45386;-60
2022/07/14 06:12:01;;;;;;;;;9.80;9.20;;;;;26.99;42.04;101481.72;5099317;27;45379;-61
2022/07/14 06:14:26;;;;;;;;;12.50;9.00;;;;;27.09;41.75;101479.22;5098801;27;46847;-61
2022/07/14 06:16:51;;;;;;;;;12.00;9.00;;;;;27.26;41.78;101490.28;5098789;27;45358;-61
2022/07/14 06:19:17;;;;;;;;;11.00;9.50;;;;;27.39;41.10;101490.03;5098759;27;45397;-61
2022/07/14 06:21:43;;;;;;;;;9.25;8.50;;;;;27.47;40.80;101483.34;5099135;27;45341;-60
2022/07/14 06:24:08;;;;;;;;;12.75;10.00;;;;;27.52;40.93;101487.03;5098646;27;46148;-61
2022/07/14 06:26:34;;;;;;;;;14.75;13.00;;;;;27.46;41.06;101485.25;5098677;27;45278;-60
2022/07/14 06:29:00;;;;;;;;;10.20;9.60;;;;;27.48;41.18;101488.59;5099135;27;45234;-61
2022/07/14 06:31:25;;;;;;;;;10.75;10.75;;;;;27.52;40.70;101495.25;5098605;27;45359;-61
2022/07/14 06:33:51;;;;;;;;;14.25;11.00;;;;;27.55;41.21;101494.75;5098502;27;45591;-60
2022/07/14 06:36:17;;;;;;;;;11.25;10.75;;;;;27.58;41.10;101494.25;5098511;27;45379;-63
2022/07/14 06:38:42;;;;;;;;;11.50;9.00;;;;;27.65;40.70;101493.31;5098721;27;45327;-61
2022/07/14 06:41:07;;;;;;;;;9.50;9.50;;;;;27.80;40.44;101502.66;5098610;27;45252;-60
2022/07/14 06:43:33;;;;;;;;;11.75;11.00;;;;;27.89;40.18;101503.09;5096915;27;48287;-61
2022/07/14 06:45:58;;;;;;;;;10.25;9.75;;;;;28.00;40.05;101495.94;5098446;27;45454;-60
2022/07/14 06:48:24;;;;;;;;;9.00;7.00;;;;;28.02;40.02;101497.38;5098518;27;45549;-62
2022/07/14 06:50:50;;;;;;;;;9.75;7.50;;;;;28.13;39.94;101501.09;5098571;27;45431;-62
2022/07/14 06:53:16;;;;;;;;;10.20;9.00;;;;;28.41;39.36;101508.50;5098061;27;47348;-61
2022/07/14 06:55:42;;;;;;;;;12.20;10.80;;;;;28.65;39.01;101500.94;5098978;27;45325;-52
2022/07/14 06:58:07;;;;;;;;;9.25;9.25;;;;;28.99;38.34;101504.53;5098231;27;45507;-56
2022/07/14 07:00:32;;;;;;;;;8.00;8.00;;;;;29.33;37.90;101491.59;5098361;27;45430;-55
2022/07/14 07:02:58;;;;;;;;;9.25;9.25;;;;;29.80;37.64;101491.09;5097791;27;45753;-55
2022/07/14 07:08:07;;;;;;;;;11.80;8.00;;;;;31.02;35.56;101491.41;5098141;27;45296;-57
2022/07/14 07:10:40;;;;;;;;;10.50;10.00;;;;;31.68;34.76;101495.59;5097410;27;45394;-54
2022/07/14 07:13:06;;;;;;;;;12.60;11.00;;;;;32.40;33.51;101489.19;5098015;27;45358;-54
2022/07/14 07:15:31;;;;;;;;;10.50;9.50;;;;;33.14;31.90;101485.00;5097926;27;45378;-54
2022/07/14 07:17:56;;;;;;;;;12.00;10.75;;;;;33.65;31.28;101484.00;5097774;27;45385;-54
2022/07/14 07:20:22;;;;;;;;;9.75;9.25;;;;;33.94;30.39;101486.88;5098160;27;45483;-54
2022/07/14 07:22:47;;;;;;;;;14.00;10.00;;;;;34.38;30.39;101486.00;5097630;27;45564;-55
2022/07/14 07:25:13;;;;;;;;;15.75;10.25;;;;;35.07;30.23;101482.09;5097760;27;45463;-58
2022/07/14 07:27:39;;;;;;;;;10.00;7.25;;;;;36.74;28.78;101488.28;5097718;27;45355;-57
2022/07/14 07:30:05;;;;;;;;;12.40;10.20;;;;;38.16;25.81;101486.47;5097892;27;45502;-58
2022/07/14 07:32:30;;;;;;;;;10.20;8.20;;;;;39.83;23.90;101479.41;5097245;27;46165;-62
2022/07/14 07:34:56;;;;;;;;;10.00;7.75;;;;;40.72;23.05;101475.06;5097522;27;45347;-58
2022/07/14 07:37:21;;;;;;;;;7.50;7.50;;;;;41.44;21.91;101478.84;5097802;27;45286;-61
2022/07/14 07:39:47;;;;;;;;;9.25;8.00;;;;;41.81;21.42;101476.31;5097605;27;45372;-60
2022/07/14 07:42:12;;;;;;;;;10.50;8.25;;;;;41.63;21.19;101484.81;5097397;27;45458;-61
2022/07/14 07:44:38;;;;;;;;;10.25;9.50;;;;;41.69;21.31;101484.59;5097533;27;45296;-59
2022/07/14 07:47:03;;;;;;;;;13.00;9.00;;;;;42.53;20.22;101480.56;5096039;27;45330;-59
2022/07/14 07:49:29;;;;;;;;;12.25;9.00;;;;;43.03;19.42;101478.66;5096843;27;45449;-58
2022/07/14 07:52:02;;;;;;;;;13.75;11.75;;;;;43.97;20.23;101478.44;5097083;27;45766;-59
2022/07/14 07:54:28;;;;;;;;;10.20;8.80;;;;;44.51;19.11;101477.94;5096477;27;45553;-58
2022/07/14 07:56:54;;;;;;;;;8.40;8.40;;;;;45.49;18.25;101481.97;5096968;27;45438;-59
2022/07/14 07:59:20;;;;;;;;;11.60;9.00;;;;;46.46;16.83;101481.97;5094684;27;45296;-58
2022/07/14 08:01:46;;;;;;;;;8.00;7.50;;;;;46.59;17.02;101477.00;5096493;27;45513;-58
2022/07/14 08:04:11;;;;;;;;;10.50;9.00;;;;;46.62;16.90;101474.25;5096967;27;45368;-64
2022/07/14 08:06:37;;;;;;;;;8.50;8.50;;;;;47.36;15.57;101481.47;5097067;27;45348;-57
2022/07/14 08:09:03;;;;;;;;;11.00;9.75;;;;;47.89;15.48;101481.41;5097342;27;45339;-58
2022/07/14 08:11:29;;;;;;;;;9.00;9.00;;;;;48.26;15.45;101481.44;5096769;27;46292;-59
2022/07/14 08:13:54;;;;;;;;;8.40;7.60;;;;;47.23;15.37;101478.03;5096674;27;45449;-61
2022/07/14 08:16:20;;;;;;;;;8.00;8.00;;;;;46.57;16.17;101471.75;5097142;27;45296;-60
2022/07/14 08:18:46;;;;;;;;;11.25;9.50;;;;;46.76;15.60;101476.47;5096987;27;45414;-57
2022/07/14 08:21:11;;;;;;;;;8.40;5.60;;;;;46.99;15.37;101468.03;5097412;27;45370;-59
2022/07/14 08:23:37;;;;;;;;;10.00;8.00;;;;;47.04;16.48;101464.09;5099245;27;45321;-57
2022/07/14 08:26:02;;;;;;;;;7.25;7.25;;;;;47.07;15.96;101461.31;5100281;27;45403;-58
2022/07/14 08:28:28;;;;;;;;;10.00;8.50;;;;;47.67;15.44;101460.59;5100764;27;45493;-60
2022/07/14 08:30:53;;;;;;;;;9.75;9.75;;;;;47.85;15.64;101469.25;5100606;27;45454;-59
2022/07/14 08:33:18;;;;;;;;;7.00;7.00;;;;;47.81;15.00;101472.03;5098957;27;45452;-58
2022/07/14 08:35:47;;;;;;;;;8.50;8.50;;;;;48.36;15.03;101469.41;5100325;27;45431;-59
2022/07/14 08:38:12;;;;;;;;;10.00;8.60;;;;;49.24;13.69;101472.59;5100314;27;45441;-57
2022/07/14 08:40:38;;;;;;;;;7.75;6.00;;;;;49.59;13.68;101464.31;5100195;27;46128;-58
2022/07/14 08:43:03;;;;;;;;;6.50;6.50;;;;;50.03;14.07;101454.78;5100139;27;45194;-58
2022/07/14 08:45:34;;;;;;;;;8.50;8.50;;;;;50.44;13.00;101471.44;5100668;27;45296;-58
2022/07/14 08:48:00;;;;;;;;;8.60;8.60;;;;;50.84;13.14;101464.56;5100181;27;45482;-59
2022/07/14 08:50:28;;;;;;;;;6.25;6.25;;;;;51.06;13.36;101467.38;5099906;27;47118;-61
2022/07/14 08:52:54;;;;;;;;;9.00;7.40;;;;;51.59;12.49;101463.63;5100214;27;45364;-59
2022/07/14 08:55:20;;;;;;;;;9.00;8.25;;;;;51.80;11.76;101463.53;5100049;27;45446;-59
2022/07/14 08:57:46;;;;;;;;;6.00;6.00;;;;;51.72;11.63;101461.13;5100192;27;45334;-58
2022/07/14 09:00:14;;;;;;;;;10.20;9.00;;;;;52.08;11.87;101468.22;5099685;27;45360;-57
2022/07/14 09:02:47;;;;;;;;;8.20;8.20;;;;;51.90;12.05;101456.19;5099567;27;45331;-57
2022/07/14 09:05:14;;;;;;;;;7.40;6.40;;;;;52.21;11.69;101460.00;5100012;27;45443;-58
2022/07/14 09:07:40;;;;;;;;;5.00;5.00;;;;;51.97;12.10;101466.69;5100102;27;45430;-63
2022/07/14 09:10:07;;;;;;;;;4.00;4.00;;;;;51.75;12.00;101472.47;5099888;27;46624;-58
2022/07/14 09:12:33;;;;;;;;;8.60;7.00;;;;;51.28;11.75;101476.66;5099771;27;45273;-58
2022/07/14 09:18:12;;;;;;;;;4.80;4.80;;;;;52.49;10.59;101467.53;5099773;27;45232;-57
2022/07/14 09:20:38;;;;;;;;;6.60;6.60;;;;;52.78;10.86;101458.78;5098833;27;45368;-58
2022/07/14 09:23:05;;;;;;;;;7.00;7.00;;;;;53.27;10.09;101462.34;5099653;27;45362;-59
2022/07/14 09:25:34;;;;;;;;;6.80;5.00;;;;;53.89;11.13;101458.31;5099786;27;45180;-60
2022/07/14 09:28:00;;;;;;;;;7.00;6.60;;;;;54.36;10.54;101464.09;5099750;27;45343;-58
2022/07/14 09:30:26;;;;;;;;;6.40;6.00;;;;;54.40;9.73;101453.44;5099762;27;45389;-58
2022/07/14 09:32:59;;;;;;;;;5.25;5.25;;;;;54.58;10.23;101453.19;5099020;27;45492;-58
2022/07/14 09:35:34;;;;;;;;;5.20;5.20;;;;;54.75;9.56;101456.94;5099332;27;45258;-60
2022/07/14 09:38:00;;;;;;;;;5.00;5.00;;;;;54.67;9.57;101458.31;5099408;27;45318;-61
2022/07/14 09:40:30;;;;;;;;;5.00;4.00;;;;;55.00;9.47;101460.16;5099283;27;46268;-58
2022/07/14 09:43:00;;;;;;;;;6.40;5.80;;;;;55.11;8.94;101461.97;5099070;27;45422;-61
2022/07/14 09:45:33;;;;;;;;;5.60;4.40;;;;;54.89;9.92;101467.31;5099296;27;45263;-62
2022/07/14 09:48:01;;;;;;;;;3.60;3.60;;;;;54.63;9.89;101460.44;5099430;27;45385;-62
2022/07/14 09:50:47;;;;;;;;;4.40;4.20;;;;;54.71;10.11;101474.13;5098929;27;47136;-59
2022/07/14 09:53:15;;;;;;;;;7.00;4.40;;;;;55.08;8.33;101474.25;5099190;27;45329;-59
2022/07/14 09:55:58;;;;;;;;;6.20;4.80;;;;;54.91;9.53;101473.34;5099050;27;45442;-63
2022/07/14 09:58:26;;;;;;;;;4.60;4.60;;;;;55.30;8.41;101466.91;5099282;27;45347;-63
2022/07/14 10:00:57;;;;;;;;;5.20;4.40;;;;;55.54;7.63;101462.72;5099132;27;45273;-62
2022/07/14 10:03:24;;;;;;;;;3.80;3.80;;;;;55.72;8.97;101472.97;5099154;27;45365;-59
2022/07/14 10:05:52;;;;;;;;;5.60;5.60;;;;;55.77;7.98;101464.66;5099746;27;45437;-60
2022/07/14 10:08:22;;;;;;;;;6.60;5.00;;;;;55.62;8.21;101465.44;5099416;27;45478;-58
2022/07/14 10:10:49;;;;;;;;;4.00;4.00;;;;;55.65;9.18;101471.06;5098850;27;46390;-61
2022/07/14 10:13:16;;;;;;;;;5.00;5.00;;;;;55.75;8.98;101460.63;5098435;27;45347;-60
2022/07/14 10:15:43;;;;;;;;;9.80;6.80;;;;;55.44;8.17;101454.38;5099117;27;45249;-62
2022/07/14 10:18:09;;;;;;;;;4.00;4.00;;;;;55.36;9.30;101461.47;5099282;27;45470;-60
2022/07/14 10:20:36;;;;;;;;;4.80;4.80;;;;;55.25;9.20;101471.09;5114835;27;48407;-61
2022/07/14 10:23:02;;;;;;;;;6.40;6.00;;;;;55.18;8.67;101470.41;5097468;27;45344;-59
2022/07/14 10:25:28;;;;;;;;;4.60;4.60;;;;;55.09;8.36;101459.56;5098541;27;45437;-58
2022/07/14 10:27:54;;;;;;;;;6.00;6.00;;;;;54.91;8.83;101459.91;5098689;27;45406;-59
2022/07/14 10:30:31;;;;;;;;;4.20;4.20;;;;;54.80;9.36;101451.53;5098425;27;47335;-58
2022/07/14 10:33:19;;;;;;;;;6.20;5.60;;;;;54.75;8.90;101448.41;5114044;27;45354;-59
2022/07/14 10:35:56;;;;;;;;;6.80;5.40;;;;;54.30;9.64;101466.66;5098608;27;45316;-60
2022/07/14 10:38:39;;;;;;;;;5.00;5.00;;;;;54.23;8.63;101466.75;5098635;27;45392;-59
2022/07/14 10:41:28;;;;;;;;;4.80;4.80;;;;;53.94;9.09;101452.13;5098357;27;47328;-58
2022/07/14 10:44:17;;;;;;;;;8.00;6.00;;;;;53.61;9.86;101453.84;5098456;27;45332;-62
2022/07/14 10:46:45;;;;;;;;;5.80;4.80;;;;;53.23;9.27;101451.03;5097488;27;45407;-58
2022/07/14 10:49:12;;;;;;;;;3.40;3.40;;;;;52.63;9.60;101461.75;5098501;27;45354;-59
2022/07/14 10:51:49;;;;;;;;;3.20;3.20;;;;;51.87;9.70;101463.47;5098060;27;46632;-58
2022/07/14 10:54:22;;;;;;;;;3.00;3.00;;;;;51.41;10.58;101460.81;5098238;27;45236;-58
2022/07/14 10:56:48;;;;;;;;;5.40;5.40;;;;;50.66;11.13;101447.59;5098300;27;45548;-58
2022/07/14 10:59:25;;;;;;;;;5.00;5.00;;;;;49.47;11.13;101458.19;5098223;27;45371;-59
2022/07/14 11:02:13;;;;;;;;;4.00;4.00;;;;;47.66;11.99;101448.47;5098101;27;46115;-61
2022/07/14 11:05:03;;;;;;;;;5.20;5.20;;;;;46.01;13.05;101450.56;5097946;27;45369;-59
2022/07/14 11:08:07;;;;;;;;;5.00;4.40;;;;;44.51;14.40;101441.47;5097881;27;45375;-58
2022/07/14 11:10:32;;;;;;;;;4.80;4.80;;;;;43.33;15.10;101452.06;5098168;27;45583;-58
2022/07/14 11:13:04;;;;;;;;;5.25;4.25;;;;;42.25;15.68;101446.00;5098017;27;45340;-57
2022/07/14 11:15:50;;;;;;;;;5.20;4.60;;;;;41.19;16.60;101427.56;5096555;27;45356;-57
2022/07/14 11:18:20;;;;;;;;;3.40;3.40;;;;;40.61;17.54;101445.88;5097342;27;45385;-57
2022/07/14 11:20:55;;;;;;;;;4.40;4.40;;;;;40.07;18.07;101446.28;5096627;27;45347;-56
2022/07/14 11:23:23;;;;;;;;;8.20;5.20;;;;;39.65;18.78;101445.09;5097507;27;45445;-61
2022/07/14 11:25:51;;;;;;;;;6.40;5.20;;;;;39.06;19.26;101437.13;5097654;27;45427;-56
2022/07/14 11:28:31;;;;;;;;;5.80;5.80;;;;;38.78;18.96;101453.22;5097679;27;45330;-58
2022/07/14 11:31:21;;;;;;;;;4.00;4.00;;;;;38.57;19.25;101450.16;5097551;27;45440;-55